sensor_id;sensor_type;location;lat;lon;timestamp;temperature;humidity
44843;DHT22;31884;52.538;13.820;2023-07-13T00:00:12;16.50;54.90
44843;DHT22;31884;52.538;13.820;2023-07-13T00:02:41;16.40;55.10
44843;DHT22;31884;52.538;13.820;2023-07-13T00:05:07;16.40;55.80
44843;DHT22;31884;52.538;13.820;2023-07-13T00:07:32;16.40;56.20
44843;DHT22;31884;52.538;13.820;2023-07-13T00:09:58;16.30;57.00
44843;DHT22;31884;52.538;13.820;2023-07-13T00:12:36;16.30;56.70
44843;DHT22;31884;52.538;13.820;2023-07-13T00:15:06;16.30;57.90
44843;DHT22;31884;52.538;13.820;2023-07-13T00:17:32;16.20;58.30
44843;DHT22;31884;52.538;13.820;2023-07-13T00:19:58;16.20;60.20
44843;DHT22;31884;52.538;13.820;2023-07-13T00:22:24;16.20;60.40
44843;DHT22;31884;52.538;13.820;2023-07-13T00:24:53;16.10;61.20
44843;DHT22;31884;52.538;13.820;2023-07-13T00:27:21;16.10;61.50
44843;DHT22;31884;52.538;13.820;2023-07-13T00:29:47;16.10;62.20
44843;DHT22;31884;52.538;13.820;2023-07-13T00:32:12;16.10;63.90
44843;DHT22;31884;52.538;13.820;2023-07-13T00:34:38;16.10;64.30
44843;DHT22;31884;52.538;13.820;2023-07-13T00:37:05;16.00;64.50
44843;DHT22;31884;52.538;13.820;2023-07-13T00:39:35;16.00;64.80
44843;DHT22;31884;52.538;13.820;2023-07-13T00:42:01;16.00;66.70
44843;DHT22;31884;52.538;13.820;2023-07-13T00:44:27;16.00;66.70
44843;DHT22;31884;52.538;13.820;2023-07-13T00:46:53;16.00;67.40
44843;DHT22;31884;52.538;13.820;2023-07-13T00:49:22;16.00;68.40
44843;DHT22;31884;52.538;13.820;2023-07-13T00:52:00;16.00;69.20
44843;DHT22;31884;52.538;13.820;2023-07-13T00:54:30;16.00;70.50
44843;DHT22;31884;52.538;13.820;2023-07-13T00:57:00;16.00;70.60
44843;DHT22;31884;52.538;13.820;2023-07-13T00:59:27;16.00;72.00
44843;DHT22;31884;52.538;13.820;2023-07-13T01:01:53;16.00;73.30
44843;DHT22;31884;52.538;13.820;2023-07-13T01:04:19;16.00;72.60
44843;DHT22;31884;52.538;13.820;2023-07-13T01:06:45;16.00;73.30
44843;DHT22;31884;52.538;13.820;2023-07-13T01:09:12;16.00;76.50
44843;DHT22;31884;52.538;13.820;2023-07-13T01:11:40;15.90;77.50
44843;DHT22;31884;52.538;13.820;2023-07-13T01:14:07;15.80;77.40
44843;DHT22;31884;52.538;13.820;2023-07-13T01:16:34;15.80;77.00
44843;DHT22;31884;52.538;13.820;2023-07-13T01:19:01;15.90;77.30
44843;DHT22;31884;52.538;13.820;2023-07-13T01:21:29;15.80;77.20
44843;DHT22;31884;52.538;13.820;2023-07-13T01:23:55;15.90;77.50
44843;DHT22;31884;52.538;13.820;2023-07-13T01:26:21;15.90;77.90
44843;DHT22;31884;52.538;13.820;2023-07-13T01:28:47;15.90;78.10
44843;DHT22;31884;52.538;13.820;2023-07-13T01:31:12;15.90;78.80
44843;DHT22;31884;52.538;13.820;2023-07-13T01:33:39;15.90;79.10
44843;DHT22;31884;52.538;13.820;2023-07-13T01:36:07;15.80;79.50
44843;DHT22;31884;52.538;13.820;2023-07-13T01:38:33;15.80;80.00
44843;DHT22;31884;52.538;13.820;2023-07-13T01:40:59;15.80;81.40
44843;DHT22;31884;52.538;13.820;2023-07-13T01:43:24;15.80;83.40
44843;DHT22;31884;52.538;13.820;2023-07-13T01:45:50;15.70;85.80
44843;DHT22;31884;52.538;13.820;2023-07-13T01:48:15;15.70;85.00
44843;DHT22;31884;52.538;13.820;2023-07-13T01:50:41;15.70;85.00
44843;DHT22;31884;52.538;13.820;2023-07-13T01:53:07;15.70;83.90
44843;DHT22;31884;52.538;13.820;2023-07-13T01:55:33;15.70;85.00
44843;DHT22;31884;52.538;13.820;2023-07-13T01:57:58;15.70;85.20
44843;DHT22;31884;52.538;13.820;2023-07-13T02:00:24;15.60;86.40
44843;DHT22;31884;52.538;13.820;2023-07-13T02:02:50;15.60;88.00
44843;DHT22;31884;52.538;13.820;2023-07-13T02:05:16;15.50;86.50
44843;DHT22;31884;52.538;13.820;2023-07-13T02:07:42;15.50;87.50
44843;DHT22;31884;52.538;13.820;2023-07-13T02:10:08;15.50;88.00
44843;DHT22;31884;52.538;13.820;2023-07-13T02:12:34;15.40;88.10
44843;DHT22;31884;52.538;13.820;2023-07-13T02:15:00;15.40;88.30
44843;DHT22;31884;52.538;13.820;2023-07-13T02:17:26;15.30;90.00
44843;DHT22;31884;52.538;13.820;2023-07-13T02:19:52;15.20;90.50
44843;DHT22;31884;52.538;13.820;2023-07-13T02:22:18;15.20;90.30
44843;DHT22;31884;52.538;13.820;2023-07-13T02:24:43;15.10;90.50
44843;DHT22;31884;52.538;13.820;2023-07-13T02:27:09;15.10;90.50
44843;DHT22;31884;52.538;13.820;2023-07-13T02:29:34;15.00;90.90
44843;DHT22;31884;52.538;13.820;2023-07-13T02:32:00;14.90;91.40
44843;DHT22;31884;52.538;13.820;2023-07-13T02:34:25;14.90;91.50
44843;DHT22;31884;52.538;13.820;2023-07-13T02:36:51;14.90;91.70
44843;DHT22;31884;52.538;13.820;2023-07-13T02:39:16;14.80;91.90
44843;DHT22;31884;52.538;13.820;2023-07-13T02:41:42;14.70;92.10
44843;DHT22;31884;52.538;13.820;2023-07-13T02:44:08;14.70;92.60
44843;DHT22;31884;52.538;13.820;2023-07-13T02:46:35;14.70;94.60
44843;DHT22;31884;52.538;13.820;2023-07-13T02:49:01;14.60;94.40
44843;DHT22;31884;52.538;13.820;2023-07-13T02:51:27;14.50;94.80
44843;DHT22;31884;52.538;13.820;2023-07-13T02:53:52;14.50;95.10
44843;DHT22;31884;52.538;13.820;2023-07-13T02:56:23;14.40;95.00
44843;DHT22;31884;52.538;13.820;2023-07-13T02:58:48;14.40;94.90
44843;DHT22;31884;52.538;13.820;2023-07-13T03:01:14;14.40;95.30
44843;DHT22;31884;52.538;13.820;2023-07-13T03:03:44;14.30;95.50
44843;DHT22;31884;52.538;13.820;2023-07-13T03:06:11;14.30;96.40
44843;DHT22;31884;52.538;13.820;2023-07-13T03:08:36;14.30;98.10
44843;DHT22;31884;52.538;13.820;2023-07-13T03:11:03;14.30;97.90
44843;DHT22;31884;52.538;13.820;2023-07-13T03:13:30;14.20;97.30
44843;DHT22;31884;52.538;13.820;2023-07-13T03:15:55;14.20;98.70
44843;DHT22;31884;52.538;13.820;2023-07-13T03:18:21;14.20;98.40
44843;DHT22;31884;52.538;13.820;2023-07-13T03:20:50;14.20;98.00
44843;DHT22;31884;52.538;13.820;2023-07-13T03:23:16;14.20;98.80
44843;DHT22;31884;52.538;13.820;2023-07-13T03:25:42;14.30;98.90
44843;DHT22;31884;52.538;13.820;2023-07-13T03:28:07;14.30;99.30
44843;DHT22;31884;52.538;13.820;2023-07-13T03:30:33;14.30;99.80
44843;DHT22;31884;52.538;13.820;2023-07-13T03:32:58;14.40;99.70
44843;DHT22;31884;52.538;13.820;2023-07-13T03:35:24;14.40;99.10
44843;DHT22;31884;52.538;13.820;2023-07-13T03:37:49;14.40;99.00
44843;DHT22;31884;52.538;13.820;2023-07-13T03:40:15;14.50;98.90
44843;DHT22;31884;52.538;13.820;2023-07-13T03:42:40;14.50;99.30
44843;DHT22;31884;52.538;13.820;2023-07-13T03:45:06;14.60;99.00
44843;DHT22;31884;52.538;13.820;2023-07-13T03:47:32;14.70;99.00
44843;DHT22;31884;52.538;13.820;2023-07-13T03:49:57;14.90;99.10
44843;DHT22;31884;52.538;13.820;2023-07-13T03:52:23;15.40;98.80
44843;DHT22;31884;52.538;13.820;2023-07-13T03:54:48;15.90;97.80
44843;DHT22;31884;52.538;13.820;2023-07-13T03:57:14;16.50;96.00
44843;DHT22;31884;52.538;13.820;2023-07-13T03:59:39;17.10;94.40
44843;DHT22;31884;52.538;13.820;2023-07-13T04:02:05;17.60;92.90
44843;DHT22;31884;52.538;13.820;2023-07-13T04:04:30;18.20;91.30
44843;DHT22;31884;52.538;13.820;2023-07-13T04:06:57;18.70;89.90
44843;DHT22;31884;52.538;13.820;2023-07-13T04:09:24;19.10;87.00
44843;DHT22;31884;52.538;13.820;2023-07-13T04:11:49;19.60;84.70
44843;DHT22;31884;52.538;13.820;2023-07-13T04:14:15;20.10;82.00
44843;DHT22;31884;52.538;13.820;2023-07-13T04:16:41;20.60;80.20
44843;DHT22;31884;52.538;13.820;2023-07-13T04:19:07;21.10;78.20
44843;DHT22;31884;52.538;13.820;2023-07-13T04:21:32;21.50;75.50
44843;DHT22;31884;52.538;13.820;2023-07-13T04:23:58;21.90;73.70
44843;DHT22;31884;52.538;13.820;2023-07-13T04:26:24;22.40;71.70
44843;DHT22;31884;52.538;13.820;2023-07-13T04:28:50;23.00;69.90
44843;DHT22;31884;52.538;13.820;2023-07-13T04:31:16;23.50;67.60
44843;DHT22;31884;52.538;13.820;2023-07-13T04:33:42;24.10;64.90
44843;DHT22;31884;52.538;13.820;2023-07-13T04:36:09;24.50;62.50
44843;DHT22;31884;52.538;13.820;2023-07-13T04:38:35;25.00;60.90
44843;DHT22;31884;52.538;13.820;2023-07-13T04:41:03;25.50;59.00
44843;DHT22;31884;52.538;13.820;2023-07-13T04:43:30;25.90;56.80
44843;DHT22;31884;52.538;13.820;2023-07-13T04:45:56;26.30;55.10
44843;DHT22;31884;52.538;13.820;2023-07-13T04:48:22;26.70;53.10
44843;DHT22;31884;52.538;13.820;2023-07-13T04:50:48;27.20;51.20
44843;DHT22;31884;52.538;13.820;2023-07-13T04:53:13;27.60;49.10
44843;DHT22;31884;52.538;13.820;2023-07-13T04:55:39;27.90;46.60
44843;DHT22;31884;52.538;13.820;2023-07-13T04:58:06;28.30;44.00
44843;DHT22;31884;52.538;13.820;2023-07-13T05:00:31;28.80;42.10
44843;DHT22;31884;52.538;13.820;2023-07-13T05:02:58;29.10;39.90
44843;DHT22;31884;52.538;13.820;2023-07-13T05:05:25;29.50;38.70
44843;DHT22;31884;52.538;13.820;2023-07-13T05:07:51;29.70;35.90
44843;DHT22;31884;52.538;13.820;2023-07-13T05:10:17;29.90;33.80
44843;DHT22;31884;52.538;13.820;2023-07-13T05:12:43;30.20;33.00
44843;DHT22;31884;52.538;13.820;2023-07-13T05:15:09;30.60;31.30
44843;DHT22;31884;52.538;13.820;2023-07-13T05:17:35;31.00;29.80
44843;DHT22;31884;52.538;13.820;2023-07-13T05:20:00;31.30;28.40
44843;DHT22;31884;52.538;13.820;2023-07-13T05:22:26;31.60;27.10
44843;DHT22;31884;52.538;13.820;2023-07-13T05:24:51;32.00;25.50
44843;DHT22;31884;52.538;13.820;2023-07-13T05:27:17;32.30;24.40
44843;DHT22;31884;52.538;13.820;2023-07-13T05:29:42;32.60;23.50
44843;DHT22;31884;52.538;13.820;2023-07-13T05:32:08;32.80;22.30
44843;DHT22;31884;52.538;13.820;2023-07-13T05:34:33;33.00;21.10
44843;DHT22;31884;52.538;13.820;2023-07-13T05:36:59;33.30;20.20
44843;DHT22;31884;52.538;13.820;2023-07-13T05:39:24;33.60;19.50
44843;DHT22;31884;52.538;13.820;2023-07-13T05:41:51;33.80;19.30
44843;DHT22;31884;52.538;13.820;2023-07-13T05:44:17;34.10;17.90
44843;DHT22;31884;52.538;13.820;2023-07-13T05:46:42;34.40;17.00
44843;DHT22;31884;52.538;13.820;2023-07-13T05:49:07;34.70;16.20
44843;DHT22;31884;52.538;13.820;2023-07-13T05:51:33;35.00;15.30
44843;DHT22;31884;52.538;13.820;2023-07-13T05:53:58;35.50;14.60
44843;DHT22;31884;52.538;13.820;2023-07-13T05:56:24;35.80;13.90
44843;DHT22;31884;52.538;13.820;2023-07-13T05:58:50;35.80;13.30
44843;DHT22;31884;52.538;13.820;2023-07-13T06:01:16;36.00;12.60
44843;DHT22;31884;52.538;13.820;2023-07-13T06:03:42;36.20;11.90
44843;DHT22;31884;52.538;13.820;2023-07-13T06:06:09;36.70;11.30
44843;DHT22;31884;52.538;13.820;2023-07-13T06:08:35;37.20;10.60
44843;DHT22;31884;52.538;13.820;2023-07-13T06:11:12;37.60;10.10
44843;DHT22;31884;52.538;13.820;2023-07-13T06:13:38;37.80;7.30
44843;DHT22;31884;52.538;13.820;2023-07-13T06:16:04;38.00;8.50
44843;DHT22;31884;52.538;13.820;2023-07-13T06:18:31;38.30;8.20
44843;DHT22;31884;52.538;13.820;2023-07-13T06:20:57;38.70;7.60
44843;DHT22;31884;52.538;13.820;2023-07-13T06:23:23;38.80;6.80
44843;DHT22;31884;52.538;13.820;2023-07-13T06:25:49;39.00;6.60
44843;DHT22;31884;52.538;13.820;2023-07-13T06:28:15;39.30;6.10
44843;DHT22;31884;52.538;13.820;2023-07-13T06:30:40;39.60;5.70
44843;DHT22;31884;52.538;13.820;2023-07-13T06:33:06;39.90;5.40
44843;DHT22;31884;52.538;13.820;2023-07-13T06:35:31;40.20;4.70
44843;DHT22;31884;52.538;13.820;2023-07-13T06:37:57;40.20;3.80
44843;DHT22;31884;52.538;13.820;2023-07-13T06:40:22;40.50;3.70
44843;DHT22;31884;52.538;13.820;2023-07-13T06:42:48;40.90;3.10
44843;DHT22;31884;52.538;13.820;2023-07-13T06:45:13;41.20;2.80
44843;DHT22;31884;52.538;13.820;2023-07-13T06:47:39;41.50;2.30
44843;DHT22;31884;52.538;13.820;2023-07-13T06:50:08;41.80;1.90
44843;DHT22;31884;52.538;13.820;2023-07-13T06:52:33;41.80;1.50
44843;DHT22;31884;52.538;13.820;2023-07-13T06:54:59;41.90;1.10
44843;DHT22;31884;52.538;13.820;2023-07-13T06:57:25;42.10;1.00
44843;DHT22;31884;52.538;13.820;2023-07-13T06:59:50;42.50;1.00
44843;DHT22;31884;52.538;13.820;2023-07-13T07:02:16;42.60;1.00
44843;DHT22;31884;52.538;13.820;2023-07-13T07:04:41;43.00;1.00
44843;DHT22;31884;52.538;13.820;2023-07-13T07:07:07;42.90;1.00
44843;DHT22;31884;52.538;13.820;2023-07-13T07:09:32;43.20;1.00
44843;DHT22;31884;52.538;13.820;2023-07-13T07:11:57;43.40;1.00
44843;DHT22;31884;52.538;13.820;2023-07-13T07:14:23;43.40;1.00
44843;DHT22;31884;52.538;13.820;2023-07-13T07:16:49;43.50;1.00
44843;DHT22;31884;52.538;13.820;2023-07-13T07:19:16;43.70;1.00
44843;DHT22;31884;52.538;13.820;2023-07-13T07:21:41;44.00;1.00
44843;DHT22;31884;52.538;13.820;2023-07-13T07:24:07;44.10;1.00
44843;DHT22;31884;52.538;13.820;2023-07-13T07:26:32;44.10;1.00
44843;DHT22;31884;52.538;13.820;2023-07-13T07:28:58;44.20;1.00
44843;DHT22;31884;52.538;13.820;2023-07-13T07:31:23;44.40;1.00
44843;DHT22;31884;52.538;13.820;2023-07-13T07:33:49;44.20;1.00
44843;DHT22;31884;52.538;13.820;2023-07-13T07:36:17;44.30;1.00
44843;DHT22;31884;52.538;13.820;2023-07-13T07:38:43;44.50;1.00
44843;DHT22;31884;52.538;13.820;2023-07-13T07:41:09;44.50;1.00
44843;DHT22;31884;52.538;13.820;2023-07-13T07:43:35;44.40;1.00
44843;DHT22;31884;52.538;13.820;2023-07-13T07:46:02;44.50;1.00
44843;DHT22;31884;52.538;13.820;2023-07-13T07:48:27;44.70;1.00
44843;DHT22;31884;52.538;13.820;2023-07-13T07:50:53;44.00;1.00
44843;DHT22;31884;52.538;13.820;2023-07-13T07:53:18;44.20;1.00
44843;DHT22;31884;52.538;13.820;2023-07-13T07:55:44;44.10;1.00
44843;DHT22;31884;52.538;13.820;2023-07-13T07:58:10;44.50;1.00
44843;DHT22;31884;52.538;13.820;2023-07-13T08:00:36;44.80;1.00
44843;DHT22;31884;52.538;13.820;2023-07-13T08:03:02;45.00;1.00
44843;DHT22;31884;52.538;13.820;2023-07-13T08:05:28;44.80;1.00
44843;DHT22;31884;52.538;13.820;2023-07-13T08:07:53;44.70;1.00
44843;DHT22;31884;52.538;13.820;2023-07-13T08:10:19;44.40;1.00
44843;DHT22;31884;52.538;13.820;2023-07-13T08:12:44;44.20;1.00
44843;DHT22;31884;52.538;13.820;2023-07-13T08:15:17;44.10;1.00
44843;DHT22;31884;52.538;13.820;2023-07-13T08:17:42;44.10;1.00
44843;DHT22;31884;52.538;13.820;2023-07-13T08:20:08;44.10;1.00
44843;DHT22;31884;52.538;13.820;2023-07-13T08:22:34;44.00;1.00
44843;DHT22;31884;52.538;13.820;2023-07-13T08:25:00;43.70;1.00
44843;DHT22;31884;52.538;13.820;2023-07-13T08:27:27;43.60;1.00
44843;DHT22;31884;52.538;13.820;2023-07-13T08:29:53;43.60;1.00
44843;DHT22;31884;52.538;13.820;2023-07-13T08:32:20;43.10;1.00
44843;DHT22;31884;52.538;13.820;2023-07-13T08:34:47;42.70;1.00
44843;DHT22;31884;52.538;13.820;2023-07-13T08:37:12;41.80;1.00
44843;DHT22;31884;52.538;13.820;2023-07-13T08:39:38;40.40;1.00
44843;DHT22;31884;52.538;13.820;2023-07-13T08:42:26;39.00;1.00
44843;DHT22;31884;52.538;13.820;2023-07-13T08:45:24;37.90;1.00
44843;DHT22;31884;52.538;13.820;2023-07-13T08:47:58;37.00;1.00
44843;DHT22;31884;52.538;13.820;2023-07-13T08:50:31;36.50;1.00
44843;DHT22;31884;52.538;13.820;2023-07-13T08:52:58;36.20;1.00
44843;DHT22;31884;52.538;13.820;2023-07-13T08:55:28;35.70;1.00
44843;DHT22;31884;52.538;13.820;2023-07-13T08:58:09;35.20;1.00
44843;DHT22;31884;52.538;13.820;2023-07-13T09:00:52;34.70;1.00
44843;DHT22;31884;52.538;13.820;2023-07-13T09:03:23;34.30;1.00
44843;DHT22;31884;52.538;13.820;2023-07-13T09:05:54;34.10;1.00
44843;DHT22;31884;52.538;13.820;2023-07-13T09:08:30;33.90;1.10
44843;DHT22;31884;52.538;13.820;2023-07-13T09:11:23;33.70;1.30
44843;DHT22;31884;52.538;13.820;2023-07-13T09:16:53;33.60;2.40
44843;DHT22;31884;52.538;13.820;2023-07-13T09:19:25;33.60;1.80
44843;DHT22;31884;52.538;13.820;2023-07-13T09:21:53;33.60;2.20
44843;DHT22;31884;52.538;13.820;2023-07-13T09:24:31;33.60;2.10
44843;DHT22;31884;52.538;13.820;2023-07-13T09:27:00;33.20;1.90
44843;DHT22;31884;52.538;13.820;2023-07-13T09:29:32;32.70;2.50
44843;DHT22;31884;52.538;13.820;2023-07-13T09:32:02;32.30;2.70
44843;DHT22;31884;52.538;13.820;2023-07-13T09:34:28;32.10;2.80
44843;DHT22;31884;52.538;13.820;2023-07-13T09:36:56;31.90;3.00
44843;DHT22;31884;52.538;13.820;2023-07-13T09:39:38;31.90;3.20
44843;DHT22;31884;52.538;13.820;2023-07-13T09:42:14;32.00;3.60
44843;DHT22;31884;52.538;13.820;2023-07-13T09:44:52;32.20;4.10
44843;DHT22;31884;52.538;13.820;2023-07-13T09:47:27;32.40;3.60
44843;DHT22;31884;52.538;13.820;2023-07-13T09:50:04;32.50;2.70
44843;DHT22;31884;52.538;13.820;2023-07-13T09:52:41;32.30;2.10
44843;DHT22;31884;52.538;13.820;2023-07-13T09:57:48;32.30;2.00
44843;DHT22;31884;52.538;13.820;2023-07-13T10:00:25;32.40;2.20
44843;DHT22;31884;52.538;13.820;2023-07-13T10:03:18;32.30;1.90
44843;DHT22;31884;52.538;13.820;2023-07-13T10:05:47;31.70;1.90
44843;DHT22;31884;52.538;13.820;2023-07-13T10:08:25;31.70;2.00
44843;DHT22;31884;52.538;13.820;2023-07-13T10:11:39;31.70;2.20
44843;DHT22;31884;52.538;13.820;2023-07-13T10:13:52;31.70;2.10
44843;DHT22;31884;52.538;13.820;2023-07-13T10:16:21;31.60;2.20
44843;DHT22;31884;52.538;13.820;2023-07-13T10:18:58;31.40;2.00
44843;DHT22;31884;52.538;13.820;2023-07-13T10:21:28;31.30;1.90
44843;DHT22;31884;52.538;13.820;2023-07-13T10:24:02;31.20;1.80
44843;DHT22;31884;52.538;13.820;2023-07-13T10:26:32;31.10;1.80
44843;DHT22;31884;52.538;13.820;2023-07-13T10:29:04;30.80;1.90
44843;DHT22;31884;52.538;13.820;2023-07-13T10:31:32;30.80;2.10
44843;DHT22;31884;52.538;13.820;2023-07-13T10:34:00;30.90;2.10
44843;DHT22;31884;52.538;13.820;2023-07-13T10:36:37;30.60;2.30
44843;DHT22;31884;52.538;13.820;2023-07-13T10:39:05;30.50;2.40
44843;DHT22;31884;52.538;13.820;2023-07-13T10:41:35;30.40;2.50
44843;DHT22;31884;52.538;13.820;2023-07-13T10:44:03;30.40;2.90
44843;DHT22;31884;52.538;13.820;2023-07-13T10:46:30;30.30;3.00
44843;DHT22;31884;52.538;13.820;2023-07-13T10:48:59;30.30;3.00
44843;DHT22;31884;52.538;13.820;2023-07-13T10:51:27;30.20;3.20
44843;DHT22;31884;52.538;13.820;2023-07-13T10:54:21;30.10;3.80
44843;DHT22;31884;52.538;13.820;2023-07-13T10:56:50;30.00;4.10
44843;DHT22;31884;52.538;13.820;2023-07-13T10:59:24;29.90;3.40
44843;DHT22;31884;52.538;13.820;2023-07-13T11:02:24;29.70;3.90
44843;DHT22;31884;52.538;13.820;2023-07-13T11:04:53;29.50;4.80
44843;DHT22;31884;52.538;13.820;2023-07-13T11:07:28;29.50;4.20
44843;DHT22;31884;52.538;13.820;2023-07-13T11:09:59;29.50;4.50
44843;DHT22;31884;52.538;13.820;2023-07-13T11:12:52;29.40;4.30
44843;DHT22;31884;52.538;13.820;2023-07-13T11:15:42;29.20;5.00
44843;DHT22;31884;52.538;13.820;2023-07-13T11:18:23;29.10;5.50
44843;DHT22;31884;52.538;13.820;2023-07-13T11:20:50;28.90;5.20
44843;DHT22;31884;52.538;13.820;2023-07-13T11:25:45;28.80;5.40
44843;DHT22;31884;52.538;13.820;2023-07-13T11:30:41;28.70;5.40
44843;DHT22;31884;52.538;13.820;2023-07-13T11:38:31;28.60;5.10
44843;DHT22;31884;52.538;13.820;2023-07-13T11:40:59;28.70;4.70
44843;DHT22;31884;52.538;13.820;2023-07-13T11:43:28;28.80;4.50
44843;DHT22;31884;52.538;13.820;2023-07-13T11:45:53;28.80;4.60
44843;DHT22;31884;52.538;13.820;2023-07-13T11:48:21;28.60;4.10
44843;DHT22;31884;52.538;13.820;2023-07-13T11:51:03;28.40;4.00
44843;DHT22;31884;52.538;13.820;2023-07-13T11:53:39;28.20;4.20
44843;DHT22;31884;52.538;13.820;2023-07-13T11:56:05;28.00;4.80
44843;DHT22;31884;52.538;13.820;2023-07-13T11:58:32;28.00;4.80
44843;DHT22;31884;52.538;13.820;2023-07-13T12:00:59;28.00;4.70
44843;DHT22;31884;52.538;13.820;2023-07-13T12:03:26;28.00;4.80
44843;DHT22;31884;52.538;13.820;2023-07-13T12:06:25;28.00;4.80
44843;DHT22;31884;52.538;13.820;2023-07-13T12:08:41;28.00;5.40
44843;DHT22;31884;52.538;13.820;2023-07-13T12:11:15;27.90;5.20
44843;DHT22;31884;52.538;13.820;2023-07-13T12:13:44;27.80;5.40
44843;DHT22;31884;52.538;13.820;2023-07-13T12:16:21;27.90;5.50
44843;DHT22;31884;52.538;13.820;2023-07-13T12:18:49;27.90;5.40
44843;DHT22;31884;52.538;13.820;2023-07-13T12:21:19;28.00;5.40
44843;DHT22;31884;52.538;13.820;2023-07-13T12:23:47;28.10;5.30
44843;DHT22;31884;52.538;13.820;2023-07-13T12:26:15;28.30;5.10
44843;DHT22;31884;52.538;13.820;2023-07-13T12:28:49;28.40;4.20
44843;DHT22;31884;52.538;13.820;2023-07-13T12:31:26;28.40;3.60
44843;DHT22;31884;52.538;13.820;2023-07-13T12:33:58;28.40;4.00
44843;DHT22;31884;52.538;13.820;2023-07-13T12:36:24;28.30;4.20
44843;DHT22;31884;52.538;13.820;2023-07-13T12:38:50;28.30;4.40
44843;DHT22;31884;52.538;13.820;2023-07-13T12:41:16;28.40;4.40
44843;DHT22;31884;52.538;13.820;2023-07-13T12:43:42;28.40;4.20
44843;DHT22;31884;52.538;13.820;2023-07-13T12:46:22;28.30;4.20
44843;DHT22;31884;52.538;13.820;2023-07-13T12:48:51;28.30;4.10
44843;DHT22;31884;52.538;13.820;2023-07-13T12:51:20;28.20;4.00
44843;DHT22;31884;52.538;13.820;2023-07-13T12:53:49;28.30;4.40
44843;DHT22;31884;52.538;13.820;2023-07-13T12:56:21;28.20;4.60
44843;DHT22;31884;52.538;13.820;2023-07-13T12:58:48;28.20;4.70
44843;DHT22;31884;52.538;13.820;2023-07-13T13:01:21;28.20;5.00
44843;DHT22;31884;52.538;13.820;2023-07-13T13:03:52;28.30;4.80
44843;DHT22;31884;52.538;13.820;2023-07-13T13:08:45;28.40;4.70
44843;DHT22;31884;52.538;13.820;2023-07-13T13:11:11;28.30;4.70
44843;DHT22;31884;52.538;13.820;2023-07-13T13:13:37;28.30;4.50
44843;DHT22;31884;52.538;13.820;2023-07-13T13:16:10;28.30;4.90
44843;DHT22;31884;52.538;13.820;2023-07-13T13:18:37;28.30;4.70
44843;DHT22;31884;52.538;13.820;2023-07-13T13:21:02;28.40;4.80
44843;DHT22;31884;52.538;13.820;2023-07-13T13:23:28;28.40;4.90
44843;DHT22;31884;52.538;13.820;2023-07-13T13:25:53;28.30;5.00
44843;DHT22;31884;52.538;13.820;2023-07-13T13:28:20;28.20;5.10
44843;DHT22;31884;52.538;13.820;2023-07-13T13:30:47;28.20;5.10
44843;DHT22;31884;52.538;13.820;2023-07-13T13:33:15;28.20;4.90
44843;DHT22;31884;52.538;13.820;2023-07-13T13:35:41;28.20;4.60
44843;DHT22;31884;52.538;13.820;2023-07-13T13:38:26;28.20;4.40
44843;DHT22;31884;52.538;13.820;2023-07-13T13:40:52;28.30;4.50
44843;DHT22;31884;52.538;13.820;2023-07-13T13:43:21;28.20;4.30
44843;DHT22;31884;52.538;13.820;2023-07-13T13:45:51;28.10;4.50
44843;DHT22;31884;52.538;13.820;2023-07-13T13:48:19;28.00;4.80
44843;DHT22;31884;52.538;13.820;2023-07-13T13:50:46;28.00;4.80
44843;DHT22;31884;52.538;13.820;2023-07-13T13:53:12;28.00;4.90
44843;DHT22;31884;52.538;13.820;2023-07-13T13:55:41;27.90;4.80
44843;DHT22;31884;52.538;13.820;2023-07-13T13:58:08;27.90;4.90
44843;DHT22;31884;52.538;13.820;2023-07-13T14:00:34;27.90;4.90
44843;DHT22;31884;52.538;13.820;2023-07-13T14:03:00;27.70;4.40
44843;DHT22;31884;52.538;13.820;2023-07-13T14:05:26;27.70;4.40
44843;DHT22;31884;52.538;13.820;2023-07-13T14:07:52;27.60;4.40
44843;DHT22;31884;52.538;13.820;2023-07-13T14:10:19;27.60;4.70
44843;DHT22;31884;52.538;13.820;2023-07-13T14:12:52;27.50;4.70
44843;DHT22;31884;52.538;13.820;2023-07-13T14:17:47;27.30;5.30
44843;DHT22;31884;52.538;13.820;2023-07-13T14:20:16;27.20;4.70
44843;DHT22;31884;52.538;13.820;2023-07-13T14:22:42;27.20;5.10
44843;DHT22;31884;52.538;13.820;2023-07-13T14:25:12;27.20;5.00
44843;DHT22;31884;52.538;13.820;2023-07-13T14:27:38;27.10;4.70
44843;DHT22;31884;52.538;13.820;2023-07-13T14:30:19;27.00;4.90
44843;DHT22;31884;52.538;13.820;2023-07-13T14:32:45;27.00;5.80
44843;DHT22;31884;52.538;13.820;2023-07-13T14:35:15;27.00;5.50
44843;DHT22;31884;52.538;13.820;2023-07-13T14:37:41;27.00;6.10
44843;DHT22;31884;52.538;13.820;2023-07-13T14:40:15;27.10;6.00
44843;DHT22;31884;52.538;13.820;2023-07-13T14:42:41;27.10;6.10
44843;DHT22;31884;52.538;13.820;2023-07-13T14:45:13;27.20;5.80
44843;DHT22;31884;52.538;13.820;2023-07-13T14:47:39;27.10;5.70
44843;DHT22;31884;52.538;13.820;2023-07-13T14:50:19;27.10;5.70
44843;DHT22;31884;52.538;13.820;2023-07-13T14:52:46;27.00;5.90
44843;DHT22;31884;52.538;13.820;2023-07-13T14:55:15;27.00;5.90
44843;DHT22;31884;52.538;13.820;2023-07-13T14:57:40;27.00;6.20
44843;DHT22;31884;52.538;13.820;2023-07-13T15:00:20;27.10;5.90
44843;DHT22;31884;52.538;13.820;2023-07-13T15:02:51;27.10;5.80
44843;DHT22;31884;52.538;13.820;2023-07-13T15:05:20;27.10;6.20
44843;DHT22;31884;52.538;13.820;2023-07-13T15:07:48;27.20;6.00
44843;DHT22;31884;52.538;13.820;2023-07-13T15:10:19;27.20;5.90
44843;DHT22;31884;52.538;13.820;2023-07-13T15:12:45;27.10;6.00
44843;DHT22;31884;52.538;13.820;2023-07-13T15:15:11;27.00;5.90
44843;DHT22;31884;52.538;13.820;2023-07-13T15:17:41;27.00;5.80
44843;DHT22;31884;52.538;13.820;2023-07-13T15:20:32;27.00;5.90
44843;DHT22;31884;52.538;13.820;2023-07-13T15:22:59;27.00;6.30
44843;DHT22;31884;52.538;13.820;2023-07-13T15:25:28;27.00;6.00
44843;DHT22;31884;52.538;13.820;2023-07-13T15:27:55;26.90;6.40
44843;DHT22;31884;52.538;13.820;2023-07-13T15:30:22;26.90;6.40
44843;DHT22;31884;52.538;13.820;2023-07-13T15:32:48;26.90;6.30
44843;DHT22;31884;52.538;13.820;2023-07-13T15:35:18;26.80;7.00
44843;DHT22;31884;52.538;13.820;2023-07-13T15:37:45;26.70;6.90
44843;DHT22;31884;52.538;13.820;2023-07-13T15:40:11;26.70;6.60
44843;DHT22;31884;52.538;13.820;2023-07-13T15:42:39;26.60;6.70
44843;DHT22;31884;52.538;13.820;2023-07-13T15:45:17;26.50;6.70
44843;DHT22;31884;52.538;13.820;2023-07-13T15:47:43;26.40;6.80
44843;DHT22;31884;52.538;13.820;2023-07-13T15:50:18;26.30;6.80
44843;DHT22;31884;52.538;13.820;2023-07-13T15:52:47;26.30;6.80